createdAt,value
2023-03-02T00:00:16.883Z,1.10
2023-03-02T00:02:22.586Z,1.10
2023-03-02T00:04:27.547Z,1.10
2023-03-02T00:06:31.122Z,1.10
2023-03-02T00:08:33.516Z,1.00
2023-03-02T00:10:36.360Z,1.10
2023-03-02T00:12:38.135Z,1.20
2023-03-02T00:14:40.004Z,1.10
2023-03-02T00:16:41.858Z,1.10
2023-03-02T00:18:43.651Z,1.10
2023-03-02T00:20:45.500Z,1.10
2023-03-02T00:22:47.454Z,1.10
2023-03-02T00:24:49.190Z,1.10
2023-03-02T00:26:50.926Z,1.10
2023-03-02T00:28:52.766Z,1.10
2023-03-02T00:30:54.475Z,1.10
2023-03-02T00:32:56.456Z,1.10
2023-03-02T00:34:58.444Z,1.10
2023-03-02T00:37:00.155Z,1.10
2023-03-02T00:39:01.938Z,1.10
2023-03-02T00:41:03.747Z,1.10
2023-03-02T00:43:05.524Z,1.10
2023-03-02T00:45:07.804Z,1.10
2023-03-02T00:47:09.615Z,1.10
2023-03-02T00:49:11.590Z,1.10
2023-03-02T00:51:14.213Z,1.00
2023-03-02T00:53:16.035Z,1.00
2023-03-02T00:55:17.854Z,1.10
2023-03-02T00:57:19.667Z,1.10
2023-03-02T00:59:27.646Z,1.00
2023-03-02T01:01:29.443Z,1.10
2023-03-02T01:03:31.280Z,1.00
2023-03-02T01:05:35.916Z,1.00
2023-03-02T01:07:37.674Z,1.00
2023-03-02T01:09:40.795Z,1.10
2023-03-02T01:11:42.534Z,1.10
2023-03-02T01:13:44.495Z,1.10
2023-03-02T01:15:46.543Z,1.00
2023-03-02T01:17:48.351Z,1.00
2023-03-02T01:19:50.123Z,0.90
2023-03-02T01:21:51.881Z,0.90
2023-03-02T01:23:53.692Z,1.00
2023-03-02T01:25:55.908Z,0.90
2023-03-02T01:27:58.227Z,0.90
2023-03-02T01:30:00.038Z,0.80
2023-03-02T01:32:02.064Z,0.80
2023-03-02T01:34:03.953Z,0.70
2023-03-02T01:36:05.944Z,0.80
2023-03-02T01:38:07.696Z,0.80
2023-03-02T01:40:12.610Z,0.70
2023-03-02T01:42:14.437Z,0.70
2023-03-02T01:44:34.714Z,0.60
2023-03-02T01:46:36.479Z,0.70
2023-03-02T01:48:40.882Z,0.60
2023-03-02T01:50:42.662Z,0.50
2023-03-02T01:52:44.418Z,0.60
2023-03-02T01:54:49.879Z,0.60
2023-03-02T01:56:55.561Z,0.60
2023-03-02T01:59:02.022Z,0.50
2023-03-02T02:01:04.325Z,0.50
2023-03-02T02:03:11.624Z,0.50
2023-03-02T02:05:15.730Z,0.50
2023-03-02T02:07:17.524Z,0.50
2023-03-02T02:09:20.651Z,0.50
2023-03-02T02:11:22.400Z,0.50
2023-03-02T02:13:24.330Z,0.40
2023-03-02T02:15:26.506Z,0.40
2023-03-02T02:17:31.736Z,0.40
2023-03-02T02:19:36.584Z,0.40
2023-03-02T02:21:38.307Z,0.20
2023-03-02T02:23:42.820Z,0.20
2023-03-02T02:25:44.651Z,0.10
2023-03-02T02:27:46.657Z,0.10
2023-03-02T02:29:49.761Z,0.00
2023-03-02T02:31:55.471Z,-0.10
2023-03-02T02:33:59.349Z,-0.10
2023-03-02T02:36:06.396Z,-0.20
2023-03-02T02:38:10.035Z,-0.20
2023-03-02T02:40:16.914Z,-0.20
2023-03-02T02:42:25.473Z,-0.30
2023-03-02T02:44:27.258Z,-0.30
2023-03-02T02:46:29.415Z,-0.30
2023-03-02T02:48:32.322Z,-0.40
2023-03-02T02:50:35.177Z,-0.40
2023-03-02T02:52:37.141Z,-0.40
2023-03-02T02:54:38.965Z,-0.40
2023-03-02T02:56:41.128Z,-0.50
2023-03-02T02:58:42.880Z,-0.50
2023-03-02T03:00:44.628Z,-0.50
2023-03-02T03:02:47.746Z,-0.50
2023-03-02T03:04:49.507Z,-0.50
2023-03-02T03:06:51.248Z,-0.50
2023-03-02T03:08:55.975Z,-0.60
2023-03-02T03:10:58.628Z,-0.60
2023-03-02T03:13:00.696Z,-0.60
2023-03-02T03:15:02.789Z,-0.60
2023-03-02T03:17:12.554Z,-0.50
2023-03-02T03:19:14.500Z,-0.60
2023-03-02T03:21:18.485Z,-0.70
2023-03-02T03:23:20.217Z,-0.70
2023-03-02T03:25:22.573Z,-0.60
2023-03-02T03:27:24.699Z,-0.70
2023-03-02T03:29:27.555Z,-0.60
2023-03-02T03:31:29.342Z,-0.70
2023-03-02T03:33:31.106Z,-0.70
2023-03-02T03:35:32.929Z,-0.70
2023-03-02T03:37:35.514Z,-0.80
2023-03-02T03:39:37.286Z,-0.80
2023-03-02T03:41:39.123Z,-0.80
2023-03-02T03:43:40.870Z,-0.80
2023-03-02T03:45:42.629Z,-0.90
2023-03-02T03:47:44.340Z,-0.90
2023-03-02T03:49:46.062Z,-1.00
2023-03-02T03:51:47.838Z,-0.80
2023-03-02T03:54:00.009Z,-0.90
2023-03-02T03:56:03.795Z,-0.80
2023-03-02T03:58:05.615Z,-0.80
2023-03-02T04:00:10.536Z,-0.90
2023-03-02T04:02:12.345Z,-1.00
2023-03-02T04:04:15.967Z,-0.90
2023-03-02T04:06:19.003Z,-1.00
2023-03-02T04:08:20.759Z,-1.00
2023-03-02T04:10:22.601Z,-1.00
2023-03-02T04:12:24.847Z,-1.00
2023-03-02T04:14:26.571Z,-1.00
2023-03-02T04:16:28.641Z,-1.00
2023-03-02T04:18:30.307Z,-1.10
2023-03-02T04:20:32.493Z,-1.10
2023-03-02T04:22:34.303Z,-1.10
2023-03-02T04:24:36.028Z,-1.10
2023-03-02T04:26:38.767Z,-1.10
2023-03-02T04:28:40.605Z,-1.10
2023-03-02T04:30:42.422Z,-1.10
2023-03-02T04:32:44.198Z,-1.20
2023-03-02T04:34:45.988Z,-1.30
2023-03-02T04:36:47.739Z,-1.20
2023-03-02T04:38:49.915Z,-1.30
2023-03-02T04:40:51.693Z,-1.30
2023-03-02T04:42:53.436Z,-1.30
2023-03-02T04:44:55.158Z,-1.30
2023-03-02T04:46:57.060Z,-1.10
2023-03-02T04:48:58.871Z,-1.10
2023-03-02T04:51:00.655Z,-1.10
2023-03-02T04:53:02.458Z,-1.10
2023-03-02T04:55:04.528Z,-1.00
2023-03-02T04:57:08.450Z,-0.90
2023-03-02T04:59:10.241Z,-0.80
2023-03-02T05:01:12.349Z,-0.90
2023-03-02T05:03:14.101Z,-0.90
2023-03-02T05:05:17.568Z,-0.80
2023-03-02T05:07:19.324Z,-0.80
2023-03-02T05:09:27.125Z,-0.80
2023-03-02T05:11:28.891Z,-0.70
2023-03-02T05:13:30.650Z,-0.70
2023-03-02T05:15:36.475Z,-0.70
2023-03-02T05:17:38.199Z,-0.60
2023-03-02T05:19:39.995Z,-0.60
2023-03-02T05:21:41.883Z,-0.50
2023-03-02T05:23:44.337Z,-0.50
2023-03-02T05:25:46.084Z,-0.50
2023-03-02T05:27:47.833Z,-0.40
2023-03-02T05:29:49.706Z,-0.40
2023-03-02T05:31:51.640Z,-0.40
2023-03-02T05:33:53.501Z,-0.30
2023-03-02T05:35:55.854Z,-0.30
2023-03-02T05:37:57.806Z,-0.20
2023-03-02T05:40:00.136Z,-0.20
2023-03-02T05:42:01.922Z,-0.20
2023-03-02T05:44:04.208Z,-0.10
2023-03-02T05:46:06.169Z,0.00
2023-03-02T05:48:08.307Z,0.00
2023-03-02T05:50:10.317Z,0.10
2023-03-02T05:52:12.087Z,0.10
2023-03-02T05:54:13.882Z,0.10
2023-03-02T05:56:15.605Z,0.20
2023-03-02T05:58:18.418Z,0.30
2023-03-02T06:00:20.516Z,0.30
2023-03-02T06:02:22.312Z,0.50
2023-03-02T06:04:24.743Z,0.50
2023-03-02T06:06:26.521Z,0.60
2023-03-02T06:08:28.247Z,0.70
2023-03-02T06:10:30.050Z,0.80
2023-03-02T06:12:31.809Z,0.80
2023-03-02T06:14:34.192Z,0.90
2023-03-02T06:16:37.255Z,0.90
2023-03-02T06:18:41.400Z,0.90
2023-03-02T06:20:43.385Z,1.00
2023-03-02T06:22:45.683Z,1.10
2023-03-02T06:24:47.455Z,1.20
2023-03-02T06:26:49.248Z,1.30
2023-03-02T06:28:53.271Z,1.30
2023-03-02T06:30:55.585Z,1.30
2023-03-02T06:32:57.323Z,1.30
2023-03-02T06:35:00.986Z,1.40
2023-03-02T06:37:02.745Z,1.50
2023-03-02T06:39:05.321Z,1.60
2023-03-02T06:41:07.079Z,1.50
2023-03-02T06:43:08.902Z,1.60
2023-03-02T06:45:11.134Z,1.70
2023-03-02T06:47:12.858Z,1.70
2023-03-02T06:49:14.642Z,1.70
2023-03-02T06:51:16.577Z,1.80
2023-03-02T06:53:20.439Z,1.70
2023-03-02T06:55:22.262Z,1.90
2023-03-02T06:57:24.116Z,2.00
2023-03-02T06:59:26.114Z,2.10
2023-03-02T07:01:32.896Z,2.10
2023-03-02T07:03:36.184Z,2.20
2023-03-02T07:05:38.030Z,2.30
2023-03-02T07:07:39.884Z,2.30
2023-03-02T07:09:41.724Z,2.40
2023-03-02T07:11:43.605Z,2.60
2023-03-02T07:13:45.488Z,2.60
2023-03-02T07:15:47.198Z,2.60
2023-03-02T07:17:48.940Z,2.70
2023-03-02T07:19:50.680Z,2.50
2023-03-02T07:21:52.404Z,2.60
2023-03-02T07:23:54.288Z,2.60
2023-03-02T07:25:56.504Z,2.70
2023-03-02T07:27:58.519Z,2.80
2023-03-02T07:30:00.307Z,2.70
2023-03-02T07:32:02.118Z,2.90
2023-03-02T07:34:03.863Z,3.00
2023-03-02T07:36:06.471Z,3.20
2023-03-02T07:38:08.202Z,3.20
2023-03-02T07:40:11.563Z,3.10
2023-03-02T07:42:13.355Z,3.10
2023-03-02T07:44:15.088Z,2.90
2023-03-02T07:46:16.915Z,3.00
2023-03-02T07:48:20.012Z,3.00
2023-03-02T07:50:21.824Z,3.20
2023-03-02T07:52:23.565Z,3.40
2023-03-02T07:54:26.527Z,3.40
2023-03-02T07:56:28.469Z,3.40
2023-03-02T07:58:30.217Z,3.50
2023-03-02T08:00:31.949Z,3.30
2023-03-02T08:02:33.921Z,3.40
2023-03-02T08:04:36.008Z,3.40
2023-03-02T08:06:37.886Z,3.40
2023-03-02T08:08:39.720Z,3.30
2023-03-02T08:10:41.505Z,3.40
2023-03-02T08:12:44.092Z,3.70
2023-03-02T08:14:47.301Z,3.80
2023-03-02T08:16:49.978Z,3.80
2023-03-02T08:18:51.817Z,3.70
2023-03-02T08:20:54.501Z,3.80
2023-03-02T08:22:56.296Z,3.50
2023-03-02T08:24:58.004Z,3.60
2023-03-02T08:27:01.070Z,3.50
2023-03-02T08:29:02.980Z,3.50
2023-03-02T08:31:05.362Z,3.60
2023-03-02T08:33:07.362Z,3.70
2023-03-02T08:35:09.274Z,3.60
2023-03-02T08:37:11.030Z,3.60
2023-03-02T08:39:12.877Z,3.80
2023-03-02T08:41:16.252Z,3.80
2023-03-02T08:43:18.825Z,4.00
2023-03-02T08:45:20.936Z,3.90
2023-03-02T08:47:22.832Z,3.70
2023-03-02T08:49:24.703Z,3.80
2023-03-02T08:51:26.714Z,3.90
2023-03-02T08:53:29.110Z,3.70
2023-03-02T08:55:30.875Z,4.00
2023-03-02T08:57:34.756Z,3.90
2023-03-02T08:59:36.480Z,3.70
2023-03-02T09:01:38.654Z,4.00
2023-03-02T09:03:40.579Z,3.80
2023-03-02T09:05:42.353Z,3.90
2023-03-02T09:07:44.271Z,3.90
2023-03-02T09:09:46.046Z,4.20
2023-03-02T09:11:48.117Z,4.30
2023-03-02T09:13:49.938Z,4.10
2023-03-02T09:15:51.733Z,4.00
2023-03-02T09:17:53.787Z,4.10
2023-03-02T09:19:55.522Z,4.30
2023-03-02T09:21:57.309Z,4.20
2023-03-02T09:23:59.097Z,4.30
2023-03-02T09:26:00.857Z,4.50
2023-03-02T09:28:02.653Z,4.40
2023-03-02T09:30:04.603Z,4.30
2023-03-02T09:32:06.432Z,4.60
2023-03-02T09:34:08.228Z,4.20
2023-03-02T09:36:11.755Z,4.20
2023-03-02T09:38:16.468Z,4.50
2023-03-02T09:40:26.334Z,4.40
2023-03-02T09:42:46.807Z,4.50
2023-03-02T09:45:03.306Z,4.80
2023-03-02T09:47:08.169Z,4.50
2023-03-02T09:49:16.134Z,4.80
2023-03-02T09:51:33.557Z,4.50
2023-03-02T09:53:46.523Z,4.70
2023-03-02T09:55:51.862Z,4.50
2023-03-02T09:57:54.972Z,4.70
2023-03-02T10:00:16.538Z,4.50
2023-03-02T10:02:32.921Z,4.80
2023-03-02T10:04:45.373Z,4.90
2023-03-02T10:06:47.285Z,4.80
2023-03-02T10:08:50.878Z,4.70
2023-03-02T10:10:52.654Z,4.70
2023-03-02T10:13:00.001Z,4.70
2023-03-02T10:15:08.353Z,4.80
2023-03-02T10:17:30.310Z,4.70
2023-03-02T10:19:41.694Z,4.70
2023-03-02T10:21:47.755Z,4.50
2023-03-02T10:23:53.956Z,4.70
2023-03-02T10:26:16.087Z,5.20
2023-03-02T10:28:19.894Z,5.20
2023-03-02T10:30:27.664Z,5.40
2023-03-02T10:32:43.453Z,5.40
2023-03-02T10:34:45.351Z,5.00
2023-03-02T10:36:47.798Z,5.20
2023-03-02T10:38:49.852Z,5.40
2023-03-02T10:41:02.468Z,5.60
2023-03-02T10:43:05.279Z,5.60
2023-03-02T10:45:24.064Z,5.60
2023-03-02T10:47:29.176Z,5.10
2023-03-02T10:49:33.795Z,5.30
2023-03-02T10:51:35.656Z,5.10
2023-03-02T10:53:37.492Z,5.40
2023-03-02T10:55:44.232Z,5.60
2023-03-02T10:57:46.510Z,5.50
2023-03-02T10:59:49.972Z,5.40
2023-03-02T11:02:23.267Z,5.50
2023-03-02T11:04:25.781Z,5.40
2023-03-02T11:06:28.149Z,5.70
2023-03-02T11:08:33.020Z,5.70
2023-03-02T11:10:36.743Z,5.80
2023-03-02T11:12:44.788Z,5.80
2023-03-02T11:14:46.542Z,5.80
2023-03-02T11:16:48.259Z,6.20
2023-03-02T11:19:02.566Z,5.60
2023-03-02T11:21:05.807Z,5.70
2023-03-02T11:23:10.525Z,5.80
2023-03-02T11:25:25.388Z,5.80
2023-03-02T11:27:28.458Z,5.80
2023-03-02T11:29:47.664Z,6.10
2023-03-02T11:31:51.472Z,6.00
2023-03-02T11:34:19.369Z,6.10
2023-03-02T11:36:24.042Z,6.30
2023-03-02T11:38:27.655Z,5.90
2023-03-02T11:40:29.361Z,5.80
2023-03-02T11:42:33.363Z,5.80
2023-03-02T11:44:35.252Z,6.00
2023-03-02T11:46:37.080Z,6.30
2023-03-02T11:48:59.485Z,6.10
2023-03-02T11:51:13.030Z,6.10
2023-03-02T11:53:16.288Z,6.30
2023-03-02T11:55:18.038Z,6.30
2023-03-02T11:57:40.050Z,6.40
2023-03-02T11:59:41.854Z,6.50
2023-03-02T12:01:45.233Z,6.20
2023-03-02T12:03:51.752Z,6.30
2023-03-02T12:05:53.477Z,6.40
2023-03-02T12:08:18.244Z,6.00
2023-03-02T12:10:28.478Z,6.30
2023-03-02T12:12:30.208Z,6.30
2023-03-02T12:14:39.036Z,6.60
2023-03-02T12:16:41.865Z,6.00
2023-03-02T12:18:45.754Z,6.30
2023-03-02T12:21:04.813Z,6.00
2023-03-02T12:23:08.100Z,6.00
2023-03-02T12:25:18.943Z,6.10
2023-03-02T12:27:25.580Z,6.10
2023-03-02T12:29:37.522Z,6.30
2023-03-02T12:31:42.108Z,6.50
2023-03-02T12:33:46.174Z,6.40
2023-03-02T12:35:50.196Z,6.40
2023-03-02T12:37:53.600Z,6.70
2023-03-02T12:40:03.020Z,6.90
2023-03-02T12:42:05.020Z,6.70
2023-03-02T12:44:31.672Z,6.60
2023-03-02T12:46:34.872Z,6.60
2023-03-02T12:48:48.884Z,6.20
2023-03-02T12:50:52.343Z,6.50
2023-03-02T12:53:16.816Z,6.50
2023-03-02T12:55:19.716Z,6.20
2023-03-02T12:57:21.515Z,6.30
2023-03-02T12:59:24.847Z,6.60
2023-03-02T13:01:28.690Z,6.80
2023-03-02T13:03:31.250Z,6.90
2023-03-02T13:05:34.531Z,6.60
2023-03-02T13:07:37.987Z,6.40
2023-03-02T13:09:47.789Z,6.50
2023-03-02T13:11:56.822Z,6.60
2023-03-02T13:13:59.536Z,6.50
2023-03-02T13:16:05.696Z,6.70
2023-03-02T13:18:12.163Z,6.70
2023-03-02T13:20:14.704Z,6.70
2023-03-02T13:22:16.670Z,6.60
2023-03-02T13:24:36.058Z,6.40
2023-03-02T13:26:40.396Z,6.40
2023-03-02T13:28:42.120Z,6.60
2023-03-02T13:30:47.897Z,6.40
2023-03-02T13:32:51.340Z,6.50
2023-03-02T13:34:54.472Z,6.50
2023-03-02T13:36:56.546Z,6.40
2023-03-02T13:38:59.449Z,6.30
2023-03-02T13:41:02.208Z,6.40
2023-03-02T13:43:08.682Z,6.30
2023-03-02T13:45:19.527Z,6.40
2023-03-02T13:47:22.709Z,6.40
2023-03-02T13:49:32.516Z,6.40
2023-03-02T13:51:36.399Z,6.40
2023-03-02T13:53:40.481Z,6.60
2023-03-02T13:55:42.231Z,6.80
2023-03-02T13:57:45.904Z,6.60
2023-03-02T13:59:48.178Z,6.70
2023-03-02T14:01:51.184Z,6.70
2023-03-02T14:03:52.958Z,6.70
2023-03-02T14:05:55.384Z,6.80
2023-03-02T14:07:57.091Z,6.80
2023-03-02T14:09:58.917Z,6.70
2023-03-02T14:12:00.693Z,6.80
2023-03-02T14:14:03.298Z,6.70
2023-03-02T14:16:05.279Z,6.60
2023-03-02T14:18:22.244Z,6.60
2023-03-02T14:20:24.034Z,6.60
2023-03-02T14:22:26.980Z,6.50
2023-03-02T14:24:28.699Z,6.40
2023-03-02T14:26:30.413Z,6.40
2023-03-02T14:28:35.883Z,6.40
2023-03-02T14:30:37.654Z,6.40
2023-03-02T14:32:41.852Z,6.50
2023-03-02T14:34:43.602Z,6.60
2023-03-02T14:36:47.001Z,7.60
2023-03-02T14:38:48.783Z,8.00
2023-03-02T14:40:50.675Z,8.60
2023-03-02T14:42:53.330Z,9.00
2023-03-02T14:44:55.046Z,8.00
2023-03-02T14:46:59.776Z,7.60
2023-03-02T14:49:01.516Z,7.40
2023-03-02T14:51:04.227Z,7.40
2023-03-02T14:53:07.282Z,7.80
2023-03-02T14:55:23.603Z,7.60
2023-03-02T14:57:26.975Z,7.60
2023-03-02T14:59:28.720Z,7.80
2023-03-02T15:01:31.808Z,7.90
2023-03-02T15:03:33.847Z,7.50
2023-03-02T15:05:35.651Z,7.60
2023-03-02T15:07:38.994Z,8.00
2023-03-02T15:09:40.768Z,7.60
2023-03-02T15:11:42.595Z,7.70
2023-03-02T15:13:45.796Z,7.30
2023-03-02T15:15:47.748Z,7.00
2023-03-02T15:17:49.528Z,6.70
2023-03-02T15:19:51.309Z,6.40
2023-03-02T15:21:53.369Z,6.30
2023-03-02T15:23:55.894Z,6.20
2023-03-02T15:26:01.037Z,6.10
2023-03-02T15:28:02.834Z,5.90
2023-03-02T15:30:05.491Z,5.80
2023-03-02T15:32:07.628Z,5.70
2023-03-02T15:34:09.780Z,5.70
2023-03-02T15:36:11.922Z,5.50
2023-03-02T15:38:13.681Z,5.50
2023-03-02T15:40:15.511Z,5.20
2023-03-02T15:42:17.250Z,5.10
2023-03-02T15:44:22.197Z,5.30
2023-03-02T15:46:24.472Z,5.30
2023-03-02T15:48:27.061Z,5.30
2023-03-02T15:50:28.800Z,5.30
2023-03-02T15:52:30.704Z,5.10
2023-03-02T15:54:32.703Z,5.00
2023-03-02T15:56:43.705Z,5.10
2023-03-02T15:58:47.779Z,4.90
2023-03-02T16:00:49.765Z,5.00
2023-03-02T16:02:51.565Z,5.00
2023-03-02T16:04:53.323Z,4.90
2023-03-02T16:06:56.301Z,4.90
2023-03-02T16:08:58.050Z,5.00
2023-03-02T16:11:00.937Z,4.90
2023-03-02T16:13:06.196Z,5.00
2023-03-02T16:15:08.642Z,4.90
2023-03-02T16:17:10.420Z,4.90
2023-03-02T16:19:13.171Z,4.70
2023-03-02T16:21:14.906Z,4.70
2023-03-02T16:23:16.669Z,4.70
2023-03-02T16:25:18.406Z,4.80
2023-03-02T16:27:20.158Z,4.90
2023-03-02T16:29:22.581Z,4.70
2023-03-02T16:31:27.175Z,4.70
2023-03-02T16:33:28.940Z,4.60
2023-03-02T16:35:31.974Z,4.60
2023-03-02T16:37:33.739Z,4.70
2023-03-02T16:39:36.356Z,4.70
2023-03-02T16:41:42.471Z,4.50
2023-03-02T16:43:45.425Z,4.40
2023-03-02T16:45:47.666Z,4.40
2023-03-02T16:47:49.560Z,4.50
2023-03-02T16:49:51.332Z,4.40
2023-03-02T16:51:56.551Z,4.40
2023-03-02T16:53:58.384Z,4.30
2023-03-02T16:56:00.144Z,4.30
2023-03-02T16:58:01.900Z,4.30
2023-03-02T17:00:04.779Z,4.10
2023-03-02T17:02:06.889Z,4.00
2023-03-02T17:04:08.832Z,4.00
2023-03-02T17:06:11.213Z,4.10
2023-03-02T17:08:13.711Z,4.20
2023-03-02T17:10:18.031Z,4.20
2023-03-02T17:12:19.761Z,4.10
2023-03-02T17:14:21.585Z,4.10
2023-03-02T17:16:24.884Z,4.10
2023-03-02T17:18:27.663Z,3.90
2023-03-02T17:20:29.701Z,3.90
2023-03-02T17:22:31.487Z,4.10
2023-03-02T17:24:33.560Z,4.20
2023-03-02T17:26:35.437Z,4.10
2023-03-02T17:28:37.255Z,4.10
2023-03-02T17:30:39.483Z,4.00
2023-03-02T17:32:42.482Z,4.00
2023-03-02T17:34:44.273Z,4.00
2023-03-02T17:36:46.018Z,3.90
2023-03-02T17:38:47.758Z,3.90
2023-03-02T17:40:49.494Z,3.90
2023-03-02T17:42:54.051Z,3.90
2023-03-02T17:44:57.136Z,3.90
2023-03-02T17:46:58.880Z,3.90
2023-03-02T17:49:00.992Z,3.80
2023-03-02T17:51:03.109Z,3.80
2023-03-02T17:53:04.971Z,3.70
2023-03-02T17:55:07.180Z,3.70
2023-03-02T17:57:09.233Z,3.60
2023-03-02T17:59:11.039Z,3.60
2023-03-02T18:01:15.658Z,3.60
2023-03-02T18:03:17.649Z,3.60
2023-03-02T18:05:19.589Z,3.50
2023-03-02T18:07:21.308Z,3.40
2023-03-02T18:09:23.286Z,3.40
2023-03-02T18:11:25.965Z,3.40
2023-03-02T18:13:27.796Z,3.30
2023-03-02T18:15:31.411Z,3.40
2023-03-02T18:17:33.168Z,3.40
2023-03-02T18:19:35.400Z,3.40
2023-03-02T18:21:39.742Z,3.40
2023-03-02T18:23:42.182Z,3.30
2023-03-02T18:25:43.915Z,3.30
2023-03-02T18:27:46.151Z,3.30
2023-03-02T18:29:48.058Z,3.10
2023-03-02T18:31:51.113Z,3.10
2023-03-02T18:33:53.169Z,2.90
2023-03-02T18:35:55.001Z,2.70
2023-03-02T18:37:56.782Z,2.50
2023-03-02T18:39:58.558Z,2.30
2023-03-02T18:42:00.337Z,2.30
2023-03-02T18:44:03.568Z,2.30
2023-03-02T18:46:05.875Z,2.20
2023-03-02T18:48:07.597Z,2.20
2023-03-02T18:50:11.036Z,2.30
2023-03-02T18:52:13.302Z,2.40
2023-03-02T18:54:15.185Z,2.20
2023-03-02T18:56:17.047Z,2.20
2023-03-02T18:58:20.337Z,2.10
2023-03-02T19:00:27.271Z,2.10
2023-03-02T19:02:29.785Z,2.00
2023-03-02T19:04:31.527Z,2.00
2023-03-02T19:06:33.279Z,2.00
2023-03-02T19:08:35.751Z,1.90
2023-03-02T19:10:38.332Z,2.00
2023-03-02T19:12:40.503Z,2.00
2023-03-02T19:14:42.786Z,2.00
2023-03-02T19:16:44.760Z,1.80
2023-03-02T19:18:46.506Z,1.80
2023-03-02T19:20:49.059Z,1.70
2023-03-02T19:22:50.788Z,1.70
2023-03-02T19:24:52.731Z,1.70
2023-03-02T19:26:54.512Z,1.70
2023-03-02T19:28:56.380Z,1.50
2023-03-02T19:31:01.950Z,1.50
2023-03-02T19:33:06.041Z,1.50
2023-03-02T19:35:08.003Z,1.60
2023-03-02T19:37:12.960Z,1.70
2023-03-02T19:39:14.688Z,1.60
2023-03-02T19:41:19.090Z,1.50
2023-03-02T19:43:21.040Z,1.40
2023-03-02T19:45:24.288Z,1.30
2023-03-02T19:47:26.202Z,1.40
2023-03-02T19:49:28.025Z,1.30
2023-03-02T19:51:32.042Z,1.30
2023-03-02T19:53:34.597Z,1.30
2023-03-02T19:55:36.540Z,1.30
2023-03-02T19:57:39.798Z,1.60
2023-03-02T19:59:41.626Z,1.40
2023-03-02T20:01:43.381Z,1.40
2023-03-02T20:03:48.207Z,1.20
2023-03-02T20:05:50.187Z,1.10
2023-03-02T20:07:52.262Z,1.20
2023-03-02T20:09:54.086Z,1.10
2023-03-02T20:11:55.928Z,1.10
2023-03-02T20:14:02.482Z,1.10
2023-03-02T20:16:04.409Z,1.00
2023-03-02T20:18:07.610Z,1.00
2023-03-02T20:20:10.540Z,1.10
2023-03-02T20:22:12.706Z,1.10
2023-03-02T20:24:14.721Z,0.90
2023-03-02T20:26:16.594Z,1.00
2023-03-02T20:28:20.924Z,0.90
2023-03-02T20:30:33.521Z,0.80
2023-03-02T20:32:35.272Z,0.80
2023-03-02T20:34:38.005Z,0.80
2023-03-02T20:36:39.960Z,0.70
2023-03-02T20:38:44.066Z,0.70
2023-03-02T20:40:46.121Z,0.70
2023-03-02T20:42:48.046Z,0.80
2023-03-02T20:44:50.099Z,0.80
2023-03-02T20:46:54.338Z,0.70
2023-03-02T20:48:56.140Z,0.70
2023-03-02T20:50:58.944Z,0.70
2023-03-02T20:53:08.634Z,0.60
2023-03-02T20:55:11.227Z,0.60
2023-03-02T20:57:18.845Z,0.50
2023-03-02T20:59:24.125Z,0.50
2023-03-02T21:01:26.343Z,0.50
2023-03-02T21:03:28.170Z,0.70
2023-03-02T21:05:30.816Z,0.80
2023-03-02T21:07:35.983Z,0.70
2023-03-02T21:09:39.112Z,0.70
2023-03-02T21:11:41.093Z,0.60
2023-03-02T21:13:45.862Z,0.70
2023-03-02T21:15:50.021Z,0.80
2023-03-02T21:17:54.599Z,0.80
2023-03-02T21:19:59.559Z,0.80
2023-03-02T21:22:01.718Z,0.90
2023-03-02T21:24:03.735Z,0.90
2023-03-02T21:26:06.815Z,0.80
2023-03-02T21:28:08.578Z,0.70
2023-03-02T21:30:24.423Z,0.60
2023-03-02T21:32:26.158Z,0.50
2023-03-02T21:34:28.051Z,0.60
2023-03-02T21:36:30.208Z,0.50
2023-03-02T21:38:32.514Z,0.50
2023-03-02T21:40:36.002Z,0.50
2023-03-02T21:42:37.803Z,0.60
2023-03-02T21:44:39.672Z,0.70
2023-03-02T21:46:41.599Z,0.80
2023-03-02T21:48:43.919Z,0.80
2023-03-02T21:50:45.936Z,0.70
2023-03-02T21:52:48.194Z,0.60
2023-03-02T21:54:50.703Z,0.70
2023-03-02T21:56:52.503Z,0.70
2023-03-02T21:58:55.608Z,0.80
2023-03-02T22:00:57.470Z,0.90
2023-03-02T22:02:59.931Z,1.00
2023-03-02T22:05:01.737Z,1.00
2023-03-02T22:07:03.611Z,1.20
2023-03-02T22:09:05.488Z,1.10
2023-03-02T22:11:11.572Z,1.00
2023-03-02T22:13:13.306Z,1.00
2023-03-02T22:15:15.173Z,1.00
2023-03-02T22:17:21.351Z,1.00
2023-03-02T22:19:28.218Z,1.00
2023-03-02T22:21:30.271Z,1.00
2023-03-02T22:23:32.133Z,1.00
2023-03-02T22:25:33.894Z,1.30
2023-03-02T22:27:35.634Z,1.30
2023-03-02T22:29:41.890Z,1.20
2023-03-02T22:31:48.559Z,1.00
2023-03-02T22:33:50.354Z,0.80
2023-03-02T22:35:53.891Z,0.80
2023-03-02T22:37:59.892Z,0.50
2023-03-02T22:40:06.821Z,0.50
2023-03-02T22:42:12.241Z,0.40
2023-03-02T22:44:14.721Z,0.40
2023-03-02T22:46:18.709Z,0.60
2023-03-02T22:48:21.614Z,0.40
2023-03-02T22:50:24.821Z,0.40
2023-03-02T22:52:31.168Z,0.50
2023-03-02T22:54:37.739Z,0.60
2023-03-02T22:56:44.366Z,0.70
2023-03-02T22:58:48.115Z,0.80
2023-03-02T23:00:51.185Z,0.70
2023-03-02T23:02:54.707Z,0.60
2023-03-02T23:04:56.560Z,0.50
2023-03-02T23:07:02.739Z,0.40
2023-03-02T23:09:05.802Z,0.60
2023-03-02T23:11:12.223Z,0.70
2023-03-02T23:13:15.453Z,0.30
2023-03-02T23:15:19.384Z,0.10
2023-03-02T23:17:22.697Z,0.00
2023-03-02T23:19:28.409Z,-0.20
2023-03-02T23:21:33.249Z,0.00
2023-03-02T23:23:38.135Z,0.10
2023-03-02T23:25:40.292Z,0.20
2023-03-02T23:27:42.047Z,0.30
2023-03-02T23:29:43.780Z,0.30
2023-03-02T23:31:45.980Z,0.40
2023-03-02T23:33:47.770Z,0.30
2023-03-02T23:35:51.327Z,0.60
2023-03-02T23:37:55.885Z,0.50
2023-03-02T23:39:57.633Z,0.50
2023-03-02T23:42:01.958Z,0.50
2023-03-02T23:44:04.918Z,0.50
2023-03-02T23:46:06.729Z,0.50
2023-03-02T23:48:08.507Z,0.50
2023-03-02T23:50:11.407Z,0.60
2023-03-02T23:52:13.174Z,0.60
2023-03-02T23:54:15.395Z,0.70
2023-03-02T23:56:17.350Z,0.80
2023-03-02T23:58:19.282Z,0.80
